createdAt,value
2019-05-07T00:01:23.989Z,6.67
2019-05-07T00:03:54.421Z,5.80
2019-05-07T00:06:24.228Z,6.07
2019-05-07T00:08:54.249Z,6.07
2019-05-07T00:11:24.462Z,6.37
2019-05-07T00:13:54.280Z,6.23
2019-05-07T00:16:24.498Z,6.27
2019-05-07T00:18:54.410Z,5.53
2019-05-07T00:21:24.119Z,5.70
2019-05-07T00:23:54.164Z,5.83
2019-05-07T00:26:24.052Z,5.40
2019-05-07T00:28:53.879Z,4.90
2019-05-07T00:31:23.691Z,5.47
2019-05-07T00:33:58.297Z,5.77
2019-05-07T00:36:47.288Z,4.70
2019-05-07T00:39:36.322Z,5.83
2019-05-07T00:42:22.170Z,6.10
2019-05-07T00:45:20.303Z,6.30
2019-05-07T00:47:43.558Z,6.10
2019-05-07T00:50:19.704Z,7.47
2019-05-07T00:52:52.334Z,6.40
2019-05-07T00:55:22.801Z,5.97
2019-05-07T00:57:53.245Z,7.30
2019-05-07T01:00:23.866Z,7.37
2019-05-07T01:02:54.598Z,7.03
2019-05-07T01:05:25.463Z,6.97
2019-05-07T01:07:55.559Z,7.37
2019-05-07T01:10:26.198Z,6.13
2019-05-07T01:12:59.073Z,7.40
2019-05-07T01:15:31.580Z,6.23
2019-05-07T01:18:00.225Z,6.60
2019-05-07T01:20:30.242Z,6.67
2019-05-07T01:23:02.553Z,6.90
2019-05-07T01:25:32.948Z,6.47
2019-05-07T01:28:03.380Z,6.50
2019-05-07T01:30:52.789Z,5.47
2019-05-07T01:33:33.210Z,5.83
2019-05-07T01:36:13.267Z,5.50
2019-05-07T01:38:43.171Z,7.07
2019-05-07T01:41:13.388Z,7.03
2019-05-07T01:43:43.195Z,7.97
2019-05-07T01:46:12.908Z,7.43
2019-05-07T01:48:43.113Z,7.53
2019-05-07T01:51:13.147Z,9.20
2019-05-07T01:53:43.268Z,8.10
2019-05-07T01:56:13.278Z,7.20
2019-05-07T01:58:43.506Z,7.50
2019-05-07T02:01:14.131Z,6.43
2019-05-07T02:03:52.779Z,6.43
2019-05-07T02:06:34.667Z,6.83
2019-05-07T02:09:16.436Z,6.53
2019-05-07T02:11:46.971Z,6.13
2019-05-07T02:14:17.183Z,7.07
2019-05-07T02:16:47.004Z,7.43
2019-05-07T02:19:16.810Z,6.47
2019-05-07T02:21:46.934Z,7.23
2019-05-07T02:24:16.638Z,6.50
2019-05-07T02:26:46.857Z,6.10
2019-05-07T02:29:16.570Z,6.77
2019-05-07T02:31:46.481Z,6.23
2019-05-07T02:34:16.813Z,6.43
2019-05-07T02:36:46.719Z,7.17
2019-05-07T02:39:24.063Z,6.57
2019-05-07T02:41:54.419Z,6.60
2019-05-07T02:44:24.579Z,6.67
2019-05-07T02:47:06.138Z,5.83
2019-05-07T02:49:45.480Z,6.70
2019-05-07T02:52:34.230Z,7.23
2019-05-07T02:55:09.883Z,7.97
2019-05-07T02:57:43.247Z,6.80
2019-05-07T03:00:14.644Z,6.90
2019-05-07T03:02:43.695Z,8.40
2019-05-07T03:05:14.040Z,7.47
2019-05-07T03:07:43.950Z,7.60
2019-05-07T03:10:14.062Z,7.87
2019-05-07T03:12:44.398Z,9.90
2019-05-07T03:15:14.205Z,9.20
2019-05-07T03:17:44.241Z,9.20
2019-05-07T03:20:18.239Z,8.13
2019-05-07T03:22:49.488Z,8.63
2019-05-07T03:25:24.513Z,7.80
2019-05-07T03:27:54.653Z,8.70
2019-05-07T03:30:45.831Z,7.20
2019-05-07T03:33:36.111Z,9.37
2019-05-07T03:36:07.286Z,8.17
2019-05-07T03:38:35.351Z,8.70
2019-05-07T03:41:05.063Z,9.40
2019-05-07T03:43:34.879Z,9.10
2019-05-07T03:46:14.167Z,9.27
2019-05-07T03:48:45.352Z,9.13
2019-05-07T03:51:15.469Z,9.80
2019-05-07T03:53:45.282Z,9.10
2019-05-07T03:56:15.504Z,8.60
2019-05-07T03:58:45.651Z,10.17
2019-05-07T04:01:15.653Z,9.03
2019-05-07T04:03:45.667Z,9.17
2019-05-07T04:06:15.895Z,9.50
2019-05-07T04:08:45.889Z,9.70
2019-05-07T04:11:16.029Z,10.23
2019-05-07T04:13:46.334Z,10.03
2019-05-07T04:16:16.681Z,8.23
2019-05-07T04:18:46.467Z,9.87
2019-05-07T04:21:16.605Z,9.50
2019-05-07T04:23:47.640Z,8.93
2019-05-07T04:26:36.296Z,8.73
2019-05-07T04:29:08.770Z,8.43
2019-05-07T04:31:43.696Z,8.97
2019-05-07T04:34:23.842Z,7.97
2019-05-07T04:36:53.421Z,6.80
2019-05-07T04:39:23.641Z,7.17
2019-05-07T04:41:53.598Z,7.20
2019-05-07T04:44:23.780Z,6.93
2019-05-07T04:46:54.443Z,6.90
2019-05-07T04:49:24.285Z,6.43
2019-05-07T04:52:15.438Z,6.53
2019-05-07T04:54:45.892Z,7.17
2019-05-07T04:57:35.691Z,6.93
2019-05-07T05:00:08.883Z,7.27
2019-05-07T05:02:58.876Z,6.50
2019-05-07T05:05:33.698Z,6.60
2019-05-07T05:08:05.535Z,6.90
2019-05-07T05:10:36.581Z,7.83
2019-05-07T05:13:07.630Z,6.87
2019-05-07T05:15:38.445Z,6.43
2019-05-07T05:18:09.198Z,6.67
2019-05-07T05:20:48.840Z,6.73
2019-05-07T05:23:38.001Z,7.53
2019-05-07T05:26:08.111Z,6.70
2019-05-07T05:28:38.229Z,6.63
2019-05-07T05:31:08.570Z,6.20
2019-05-07T05:33:38.466Z,5.90
2019-05-07T05:36:08.481Z,6.43
2019-05-07T05:38:38.400Z,5.80
2019-05-07T05:41:08.530Z,5.67
2019-05-07T05:43:57.066Z,5.50
2019-05-07T05:46:31.442Z,6.47
2019-05-07T05:49:02.596Z,5.30
2019-05-07T05:51:42.865Z,5.60
2019-05-07T05:54:31.846Z,5.33
2019-05-07T05:57:23.068Z,5.70
2019-05-07T06:00:03.215Z,5.40
2019-05-07T06:02:53.128Z,4.93
2019-05-07T06:05:34.889Z,5.23
2019-05-07T06:08:24.165Z,4.67
2019-05-07T06:11:04.031Z,4.13
2019-05-07T06:13:43.649Z,4.27
2019-05-07T06:16:21.931Z,4.20
2019-05-07T06:19:06.730Z,3.97
2019-05-07T06:21:55.390Z,4.17
2019-05-07T06:24:44.877Z,4.30
2019-05-07T06:27:15.191Z,4.00
2019-05-07T06:29:45.810Z,3.97
2019-05-07T06:32:18.092Z,4.90
2019-05-07T06:34:49.011Z,4.23
2019-05-07T06:37:19.126Z,4.07
2019-05-07T06:40:11.944Z,4.17
2019-05-07T06:43:00.131Z,4.33
2019-05-07T06:45:35.449Z,3.67
2019-05-07T06:48:05.791Z,4.60
2019-05-07T06:50:36.019Z,4.70
2019-05-07T06:53:06.237Z,4.93
2019-05-07T06:55:37.280Z,4.23
2019-05-07T06:58:09.240Z,4.73
2019-05-07T07:00:57.474Z,4.63
2019-05-07T07:03:33.747Z,4.93
2019-05-07T07:06:23.040Z,3.97
2019-05-07T07:09:12.712Z,4.50
2019-05-07T07:11:48.737Z,5.03
2019-05-07T07:14:18.549Z,4.27
2019-05-07T07:16:48.669Z,4.83
2019-05-07T07:19:18.484Z,4.50
2019-05-07T07:21:49.117Z,4.00
2019-05-07T07:24:19.244Z,4.30
2019-05-07T07:26:49.665Z,4.80
2019-05-07T07:29:22.066Z,4.90
2019-05-07T07:31:56.283Z,4.67
2019-05-07T07:34:54.655Z,4.10
2019-05-07T07:37:34.500Z,4.20
2019-05-07T07:40:16.777Z,3.97
2019-05-07T07:42:46.893Z,3.97
2019-05-07T07:45:18.247Z,4.30
2019-05-07T07:47:48.466Z,3.80
2019-05-07T07:50:18.882Z,4.47
2019-05-07T07:52:49.632Z,4.60
2019-05-07T07:55:22.311Z,4.67
2019-05-07T07:57:59.487Z,3.90
2019-05-07T08:00:37.706Z,4.83
2019-05-07T08:03:10.167Z,5.20
2019-05-07T08:05:40.200Z,4.90
2019-05-07T08:08:09.699Z,5.70
2019-05-07T08:10:39.603Z,5.83
2019-05-07T08:13:09.825Z,5.77
2019-05-07T08:15:42.836Z,5.70
2019-05-07T08:18:12.270Z,6.70
2019-05-07T08:20:43.035Z,6.30
2019-05-07T08:23:13.283Z,5.57
2019-05-07T08:25:49.227Z,6.20
2019-05-07T08:28:19.859Z,6.63
2019-05-07T08:30:58.182Z,7.50
2019-05-07T08:33:32.263Z,7.60
2019-05-07T08:36:11.986Z,7.47
2019-05-07T08:39:02.226Z,7.97
2019-05-07T08:41:32.649Z,7.73
2019-05-07T08:44:12.208Z,8.23
2019-05-07T08:46:59.930Z,6.90
2019-05-07T08:49:36.898Z,7.90
2019-05-07T08:52:03.459Z,7.57
2019-05-07T08:54:33.366Z,7.70
2019-05-07T08:57:03.463Z,7.40
2019-05-07T08:59:34.498Z,7.60
2019-05-07T09:02:05.275Z,7.50
2019-05-07T09:04:35.454Z,7.60
2019-05-07T09:07:05.792Z,7.37
2019-05-07T09:09:35.796Z,6.97
2019-05-07T09:12:06.147Z,6.90
2019-05-07T09:14:36.655Z,7.30
2019-05-07T09:17:07.108Z,6.80
2019-05-07T09:19:48.316Z,7.27
2019-05-07T09:22:09.582Z,6.70
2019-05-07T09:24:39.608Z,7.47
2019-05-07T09:27:18.622Z,7.60
2019-05-07T09:30:07.162Z,7.23
2019-05-07T09:32:44.661Z,8.03
2019-05-07T09:35:18.250Z,7.30
2019-05-07T09:37:48.483Z,7.70
2019-05-07T09:40:18.611Z,7.77
2019-05-07T09:42:48.510Z,7.13
2019-05-07T09:45:18.651Z,7.27
2019-05-07T09:47:48.540Z,6.83
2019-05-07T09:50:18.554Z,6.60
2019-05-07T09:52:48.262Z,6.77
2019-05-07T09:55:18.390Z,6.60
2019-05-07T09:57:48.226Z,7.07
2019-05-07T10:00:19.440Z,6.07
2019-05-07T10:02:49.887Z,7.00
2019-05-07T10:05:19.810Z,6.60
2019-05-07T10:07:49.875Z,6.53
2019-05-07T10:10:22.182Z,7.10
2019-05-07T10:13:01.828Z,7.80
2019-05-07T10:15:33.165Z,6.63
2019-05-07T10:18:13.930Z,7.10
2019-05-07T10:20:44.557Z,6.83
2019-05-07T10:23:22.792Z,8.07
2019-05-07T10:25:54.327Z,7.43
2019-05-07T10:28:24.543Z,7.67
2019-05-07T10:30:55.286Z,7.00
2019-05-07T10:33:25.605Z,7.90
2019-05-07T10:35:55.515Z,7.53
2019-05-07T10:38:25.532Z,7.37
2019-05-07T10:40:55.446Z,8.20
2019-05-07T10:43:25.467Z,8.53
2019-05-07T10:46:14.123Z,7.93
2019-05-07T10:48:48.438Z,8.37
2019-05-07T10:51:18.448Z,8.93
2019-05-07T10:53:48.269Z,8.17
2019-05-07T10:56:18.184Z,9.07
2019-05-07T10:58:48.704Z,9.43
2019-05-07T11:01:22.439Z,8.23
2019-05-07T11:03:52.328Z,8.53
2019-05-07T11:06:22.244Z,8.40
2019-05-07T11:08:52.147Z,8.03
2019-05-07T11:11:21.961Z,8.80
2019-05-07T11:13:55.785Z,9.40
2019-05-07T11:16:25.269Z,9.80
2019-05-07T11:18:55.491Z,10.13
2019-05-07T11:21:33.348Z,10.50
2019-05-07T11:24:03.564Z,10.43
2019-05-07T11:26:33.843Z,10.10
2019-05-07T11:29:03.443Z,10.87
2019-05-07T11:31:33.385Z,10.57
2019-05-07T11:34:03.798Z,10.00
2019-05-07T11:36:34.385Z,9.43
2019-05-07T11:39:07.211Z,8.97
2019-05-07T11:41:47.880Z,10.30
2019-05-07T11:44:23.012Z,9.63
2019-05-07T11:47:12.302Z,8.13
2019-05-07T11:50:03.179Z,7.53
2019-05-07T11:52:36.463Z,8.23
2019-05-07T11:55:07.858Z,7.67
2019-05-07T11:57:38.032Z,7.73
2019-05-07T12:00:12.873Z,7.70
2019-05-07T12:02:43.492Z,8.10
2019-05-07T12:05:14.126Z,7.67
2019-05-07T12:07:44.140Z,7.97
2019-05-07T12:10:14.472Z,8.40
2019-05-07T12:12:48.779Z,8.50
2019-05-07T12:15:18.880Z,7.27
2019-05-07T12:17:49.231Z,7.07
2019-05-07T12:20:21.708Z,7.50
2019-05-07T12:22:52.167Z,7.80
2019-05-07T12:25:23.472Z,7.10
2019-05-07T12:27:53.882Z,7.60
2019-05-07T12:30:32.731Z,7.17
2019-05-07T12:33:15.691Z,7.20
2019-05-07T12:35:46.291Z,9.23
2019-05-07T12:38:16.721Z,9.83
2019-05-07T12:40:47.250Z,11.43
2019-05-07T12:43:17.571Z,17.13
2019-05-07T12:45:47.698Z,13.07
2019-05-07T12:48:17.582Z,11.27
2019-05-07T12:50:47.530Z,11.43
2019-05-07T12:53:36.054Z,10.27
2019-05-07T12:56:06.605Z,10.37
2019-05-07T12:58:36.388Z,11.67
2019-05-07T13:01:11.772Z,10.60
2019-05-07T13:03:51.944Z,10.00
2019-05-07T13:06:22.215Z,9.53
2019-05-07T13:08:52.451Z,9.83
2019-05-07T13:11:22.877Z,9.07
2019-05-07T13:13:52.769Z,9.00
2019-05-07T13:16:22.784Z,7.03
2019-05-07T13:18:53.209Z,6.70
2019-05-07T13:21:23.370Z,6.67
2019-05-07T13:23:53.490Z,7.17
2019-05-07T13:26:24.598Z,7.80
2019-05-07T13:28:54.612Z,7.70
2019-05-07T13:31:27.673Z,7.77
2019-05-07T13:33:57.875Z,8.70
2019-05-07T13:36:28.570Z,9.57
2019-05-07T13:39:16.587Z,10.73
2019-05-07T13:41:55.310Z,9.77
2019-05-07T13:44:45.131Z,9.83
2019-05-07T13:47:34.157Z,11.60
2019-05-07T13:50:04.272Z,10.23
2019-05-07T13:52:34.734Z,9.77
2019-05-07T13:55:06.163Z,10.23
2019-05-07T13:57:37.431Z,10.80
2019-05-07T14:00:12.964Z,10.53
2019-05-07T14:02:43.603Z,10.37
2019-05-07T14:05:15.228Z,10.40
2019-05-07T14:07:56.112Z,10.07
2019-05-07T14:10:26.661Z,11.83
2019-05-07T14:13:07.643Z,10.97
2019-05-07T14:15:29.779Z,9.10
2019-05-07T14:17:59.659Z,9.43
2019-05-07T14:20:32.661Z,9.97
2019-05-07T14:23:02.685Z,9.10
2019-05-07T14:25:33.304Z,10.70
2019-05-07T14:28:03.626Z,10.10
2019-05-07T14:30:33.649Z,10.37
2019-05-07T14:33:12.416Z,10.67
2019-05-07T14:35:56.908Z,8.10
2019-05-07T14:38:32.662Z,7.37
2019-05-07T14:41:02.883Z,8.07
2019-05-07T14:43:41.902Z,8.43
2019-05-07T14:46:14.314Z,9.60
2019-05-07T14:48:44.920Z,8.70
2019-05-07T14:51:15.223Z,18.43
2019-05-07T14:53:46.802Z,9.67
2019-05-07T14:56:17.201Z,13.53
2019-05-07T14:58:47.648Z,12.57
2019-05-07T15:01:17.558Z,10.70
2019-05-07T15:03:47.877Z,10.13
2019-05-07T15:06:18.196Z,9.50
2019-05-07T15:08:48.730Z,10.03
2019-05-07T15:11:21.457Z,9.73
2019-05-07T15:13:53.185Z,8.37
2019-05-07T15:16:23.694Z,9.20
2019-05-07T15:19:00.602Z,9.70
2019-05-07T15:21:39.829Z,8.70
2019-05-07T15:24:12.561Z,8.07
2019-05-07T15:26:42.188Z,7.97
2019-05-07T15:29:18.036Z,8.43
2019-05-07T15:31:57.599Z,9.10
2019-05-07T15:34:28.225Z,9.97
2019-05-07T15:36:58.428Z,8.53
2019-05-07T15:39:32.660Z,10.27
2019-05-07T15:42:03.184Z,12.20
2019-05-07T15:44:33.329Z,11.80
2019-05-07T15:47:13.252Z,11.43
2019-05-07T15:49:44.189Z,13.47
2019-05-07T15:52:27.168Z,11.60
2019-05-07T15:54:57.124Z,12.23
2019-05-07T15:57:32.849Z,14.73
2019-05-07T16:00:06.463Z,11.77
2019-05-07T16:02:39.671Z,11.93
2019-05-07T16:05:12.267Z,12.23
2019-05-07T16:07:43.487Z,11.50
2019-05-07T16:10:15.131Z,12.13
2019-05-07T16:12:46.613Z,11.47
2019-05-07T16:15:19.678Z,11.27
2019-05-07T16:17:56.672Z,10.50
2019-05-07T16:20:32.413Z,11.10
2019-05-07T16:23:14.661Z,10.90
2019-05-07T16:25:37.581Z,12.80
2019-05-07T16:28:12.598Z,11.67
2019-05-07T16:30:43.653Z,11.50
2019-05-07T16:33:16.663Z,10.83
2019-05-07T16:35:56.069Z,10.17
2019-05-07T16:38:28.215Z,9.37
2019-05-07T16:40:59.295Z,9.90
2019-05-07T16:43:30.230Z,10.60
2019-05-07T16:46:02.307Z,9.80
2019-05-07T16:48:32.754Z,9.57
2019-05-07T16:51:03.241Z,9.57
2019-05-07T16:53:35.360Z,9.07
2019-05-07T16:56:07.682Z,10.97
2019-05-07T16:58:42.844Z,9.83
2019-05-07T17:01:13.663Z,10.97
2019-05-07T17:03:47.836Z,9.90
2019-05-07T17:06:18.910Z,11.70
2019-05-07T17:09:05.391Z,10.27
2019-05-07T17:11:36.659Z,11.03
2019-05-07T17:14:06.688Z,12.87
2019-05-07T17:16:36.874Z,12.40
2019-05-07T17:19:07.522Z,12.87
2019-05-07T17:21:37.727Z,14.47
2019-05-07T17:24:09.165Z,14.97
2019-05-07T17:26:42.156Z,13.20
2019-05-07T17:29:14.239Z,15.13
2019-05-07T17:31:44.665Z,13.80
2019-05-07T17:34:17.661Z,12.83
2019-05-07T17:36:48.281Z,12.30
2019-05-07T17:39:18.583Z,11.37
2019-05-07T17:41:51.755Z,10.10
2019-05-07T17:44:26.210Z,10.43
2019-05-07T17:46:57.469Z,11.13
2019-05-07T17:49:27.880Z,12.33
2019-05-07T17:51:58.713Z,12.73
2019-05-07T17:54:29.232Z,13.43
2019-05-07T17:57:03.651Z,11.33
2019-05-07T17:59:35.342Z,11.50
2019-05-07T18:02:15.357Z,14.80
2019-05-07T18:04:55.878Z,13.93
2019-05-07T18:07:30.892Z,15.00
2019-05-07T18:10:04.453Z,19.50
2019-05-07T18:12:35.903Z,17.77
2019-05-07T18:15:12.564Z,20.10
2019-05-07T18:17:51.521Z,21.40
2019-05-07T18:20:22.654Z,21.70
2019-05-07T18:22:54.650Z,20.43
2019-05-07T18:25:29.751Z,19.03
2019-05-07T18:28:01.869Z,19.50
2019-05-07T18:30:32.773Z,18.80
2019-05-07T18:33:22.182Z,17.87
2019-05-07T18:35:57.685Z,17.40
2019-05-07T18:38:33.151Z,17.43
2019-05-07T18:41:03.664Z,17.00
2019-05-07T18:43:35.812Z,18.67
2019-05-07T18:46:08.614Z,17.37
2019-05-07T18:48:42.833Z,17.13
2019-05-07T18:51:16.420Z,17.33
2019-05-07T18:53:51.803Z,17.23
2019-05-07T18:56:22.234Z,17.77
2019-05-07T18:58:54.049Z,17.33
2019-05-07T19:01:29.603Z,20.47
2019-05-07T19:04:06.153Z,19.83
2019-05-07T19:06:39.772Z,19.13
2019-05-07T19:09:14.791Z,20.07
2019-05-07T19:11:52.214Z,22.53
2019-05-07T19:14:23.011Z,21.70
2019-05-07T19:16:53.745Z,21.70
2019-05-07T19:19:45.690Z,23.03
2019-05-07T19:22:17.447Z,21.93
2019-05-07T19:24:48.256Z,23.30
2019-05-07T19:27:22.718Z,21.23
2019-05-07T19:29:57.619Z,21.23
2019-05-07T19:32:32.296Z,19.03
2019-05-07T19:35:12.705Z,19.47
2019-05-07T19:37:43.438Z,21.80
2019-05-07T19:40:13.676Z,19.70
2019-05-07T19:42:44.586Z,20.10
2019-05-07T19:45:14.501Z,20.77
2019-05-07T19:47:52.357Z,21.90
2019-05-07T19:50:27.443Z,25.70
2019-05-07T19:53:02.784Z,23.50
2019-05-07T19:55:56.062Z,23.57
2019-05-07T19:58:28.232Z,22.23
2019-05-07T20:00:59.478Z,19.20
2019-05-07T20:03:34.191Z,17.83
2019-05-07T20:06:07.475Z,18.73
2019-05-07T20:08:39.591Z,19.60
2019-05-07T20:11:31.841Z,21.17
2019-05-07T20:14:03.455Z,22.73
2019-05-07T20:16:33.341Z,22.13
2019-05-07T20:19:05.919Z,23.33
2019-05-07T20:21:39.009Z,20.90
2019-05-07T20:24:12.607Z,21.77
2019-05-07T20:26:45.205Z,20.40
2019-05-07T20:29:17.783Z,22.03
2019-05-07T20:31:49.129Z,22.27
2019-05-07T20:34:22.118Z,23.10
2019-05-07T20:36:53.049Z,25.37
2019-05-07T20:39:23.412Z,21.57
2019-05-07T20:41:53.591Z,23.60
2019-05-07T20:44:23.614Z,25.20
2019-05-07T20:46:53.745Z,26.37
2019-05-07T20:49:24.261Z,25.83
2019-05-07T20:51:54.459Z,26.20
2019-05-07T20:54:45.902Z,28.67
2019-05-07T20:57:22.491Z,24.20
2019-05-07T20:59:52.263Z,23.07
2019-05-07T21:02:22.809Z,25.43
2019-05-07T21:04:54.469Z,26.23
2019-05-07T21:07:24.459Z,25.60
2019-05-07T21:09:54.613Z,24.40
2019-05-07T21:12:25.221Z,25.43
2019-05-07T21:14:56.050Z,25.87
2019-05-07T21:17:26.601Z,26.57
2019-05-07T21:19:57.121Z,25.97
2019-05-07T21:22:27.432Z,29.70
2019-05-07T21:24:57.490Z,28.00
2019-05-07T21:27:27.682Z,27.57
2019-05-07T21:29:57.792Z,28.97
2019-05-07T21:32:28.031Z,30.17
2019-05-07T21:34:58.551Z,26.40
2019-05-07T21:37:28.450Z,26.57
2019-05-07T21:39:58.801Z,28.93
2019-05-07T21:42:31.981Z,33.10
2019-05-07T21:45:02.154Z,48.97
2019-05-07T21:47:32.778Z,45.03
2019-05-07T21:50:03.242Z,44.57
2019-05-07T21:52:39.432Z,45.90
2019-05-07T21:55:28.708Z,44.00
2019-05-07T21:58:18.077Z,46.67
2019-05-07T22:01:08.346Z,47.17
2019-05-07T22:03:38.450Z,40.80
2019-05-07T22:06:10.584Z,40.83
2019-05-07T22:08:41.160Z,40.80
2019-05-07T22:11:12.298Z,39.47
2019-05-07T22:13:43.524Z,44.43
2019-05-07T22:16:14.084Z,42.27
2019-05-07T22:18:57.910Z,42.77
2019-05-07T22:21:28.560Z,41.93
2019-05-07T22:24:02.964Z,43.53
2019-05-07T22:26:33.696Z,42.93
2019-05-07T22:29:12.332Z,50.30
2019-05-07T22:31:50.435Z,51.63
2019-05-07T22:34:30.782Z,49.37
2019-05-07T22:37:03.221Z,45.63
2019-05-07T22:39:38.598Z,43.37
2019-05-07T22:42:09.010Z,42.23
2019-05-07T22:44:51.881Z,43.87
2019-05-07T22:47:23.011Z,40.40
2019-05-07T22:49:53.950Z,40.70
2019-05-07T22:52:28.737Z,39.00
2019-05-07T22:55:09.122Z,40.23
2019-05-07T22:57:55.008Z,41.40
2019-05-07T23:00:33.709Z,42.63
2019-05-07T23:03:04.033Z,38.70
2019-05-07T23:05:35.391Z,42.17
2019-05-07T23:08:05.498Z,43.30
2019-05-07T23:10:36.054Z,50.23
2019-05-07T23:13:06.573Z,45.90
2019-05-07T23:15:36.467Z,56.20
2019-05-07T23:18:06.381Z,58.27
2019-05-07T23:20:36.191Z,56.73
2019-05-07T23:23:06.429Z,54.33
2019-05-07T23:25:36.884Z,62.83
2019-05-07T23:28:07.061Z,54.30
2019-05-07T23:30:37.499Z,55.33
2019-05-07T23:33:08.032Z,41.30
2019-05-07T23:35:38.751Z,42.23
2019-05-07T23:38:09.186Z,43.43
2019-05-07T23:40:58.154Z,36.47
2019-05-07T23:43:28.681Z,37.17
2019-05-07T23:45:58.701Z,34.40
2019-05-07T23:48:28.886Z,40.93
2019-05-07T23:50:58.924Z,44.83
2019-05-07T23:53:28.878Z,47.70
2019-05-07T23:55:58.958Z,40.70
2019-05-07T23:58:29.286Z,38.77
